sensor_id;sensor_type;location;lat;lon;timestamp;temperature;humidity
296;DHT22;132;48.770;9.200;2023-03-01T00:02:05;-0.40;1.00
296;DHT22;132;48.770;9.200;2023-03-01T00:04:32;-0.30;1.00
296;DHT22;132;48.770;9.200;2023-03-01T00:06:59;-0.40;1.00
296;DHT22;132;48.770;9.200;2023-03-01T00:09:25;-0.40;1.00
296;DHT22;132;48.770;9.200;2023-03-01T00:11:51;-0.40;1.00
296;DHT22;132;48.770;9.200;2023-03-01T00:14:18;-0.40;1.00
296;DHT22;132;48.770;9.200;2023-03-01T00:16:45;-0.50;1.00
296;DHT22;132;48.770;9.200;2023-03-01T00:19:14;-0.40;1.00
296;DHT22;132;48.770;9.200;2023-03-01T00:21:41;-0.50;1.00
296;DHT22;132;48.770;9.200;2023-03-01T00:24:09;-0.50;1.00
296;DHT22;132;48.770;9.200;2023-03-01T00:26:35;-0.50;1.00
296;DHT22;132;48.770;9.200;2023-03-01T00:29:02;-0.60;1.00
296;DHT22;132;48.770;9.200;2023-03-01T00:31:31;-0.50;1.00
296;DHT22;132;48.770;9.200;2023-03-01T00:34:01;-0.40;1.00
296;DHT22;132;48.770;9.200;2023-03-01T00:36:30;-0.50;1.00
296;DHT22;132;48.770;9.200;2023-03-01T00:38:57;-0.50;1.00
296;DHT22;132;48.770;9.200;2023-03-01T00:41:24;-0.60;1.00
296;DHT22;132;48.770;9.200;2023-03-01T00:43:53;-0.30;1.00
296;DHT22;132;48.770;9.200;2023-03-01T00:46:22;-0.60;1.00
296;DHT22;132;48.770;9.200;2023-03-01T00:48:49;-0.60;1.00
296;DHT22;132;48.770;9.200;2023-03-01T00:51:21;-0.60;1.00
296;DHT22;132;48.770;9.200;2023-03-01T00:53:51;-0.60;1.00
296;DHT22;132;48.770;9.200;2023-03-01T00:56:18;-0.70;1.00
296;DHT22;132;48.770;9.200;2023-03-01T00:58:45;-0.70;1.00
296;DHT22;132;48.770;9.200;2023-03-01T01:01:14;-0.70;1.00
296;DHT22;132;48.770;9.200;2023-03-01T01:03:49;-0.70;1.00
296;DHT22;132;48.770;9.200;2023-03-01T01:06:40;-0.70;1.00
296;DHT22;132;48.770;9.200;2023-03-01T01:09:09;-0.70;1.00
296;DHT22;132;48.770;9.200;2023-03-01T01:11:48;-0.70;1.00
296;DHT22;132;48.770;9.200;2023-03-01T01:14:17;-0.80;1.00
296;DHT22;132;48.770;9.200;2023-03-01T01:16:44;-0.80;1.00
296;DHT22;132;48.770;9.200;2023-03-01T01:19:11;-0.70;1.00
296;DHT22;132;48.770;9.200;2023-03-01T01:21:37;-0.70;1.00
296;DHT22;132;48.770;9.200;2023-03-01T01:24:04;-0.80;1.00
296;DHT22;132;48.770;9.200;2023-03-01T01:26:33;-0.80;1.00
296;DHT22;132;48.770;9.200;2023-03-01T01:29:02;-0.60;1.00
296;DHT22;132;48.770;9.200;2023-03-01T01:31:29;-0.80;1.00
296;DHT22;132;48.770;9.200;2023-03-01T01:33:57;-0.80;1.00
296;DHT22;132;48.770;9.200;2023-03-01T01:36:24;-0.90;1.00
296;DHT22;132;48.770;9.200;2023-03-01T01:38:51;-0.40;1.00
296;DHT22;132;48.770;9.200;2023-03-01T01:41:18;0.70;1.00
296;DHT22;132;48.770;9.200;2023-03-01T01:43:47;-0.80;1.00
296;DHT22;132;48.770;9.200;2023-03-01T01:46:33;-0.80;1.00
296;DHT22;132;48.770;9.200;2023-03-01T01:49:05;-1.20;1.00
296;DHT22;132;48.770;9.200;2023-03-01T01:51:38;-0.20;1.00
296;DHT22;132;48.770;9.200;2023-03-01T01:54:38;-0.80;1.00
296;DHT22;132;48.770;9.200;2023-03-01T01:57:11;-0.80;1.00
296;DHT22;132;48.770;9.200;2023-03-01T01:59:39;-0.70;1.00
296;DHT22;132;48.770;9.200;2023-03-01T02:02:06;-0.60;1.00
296;DHT22;132;48.770;9.200;2023-03-01T02:04:33;-0.60;1.00
296;DHT22;132;48.770;9.200;2023-03-01T02:07:15;-0.60;1.00
296;DHT22;132;48.770;9.200;2023-03-01T02:09:46;-0.50;1.00
296;DHT22;132;48.770;9.200;2023-03-01T02:12:14;-0.40;1.00
296;DHT22;132;48.770;9.200;2023-03-01T02:14:41;-0.40;1.00
296;DHT22;132;48.770;9.200;2023-03-01T02:17:09;-0.30;1.00
296;DHT22;132;48.770;9.200;2023-03-01T02:22:30;-0.20;1.00
296;DHT22;132;48.770;9.200;2023-03-01T02:27:45;-0.10;1.00
296;DHT22;132;48.770;9.200;2023-03-01T02:30:14;-0.10;1.00
296;DHT22;132;48.770;9.200;2023-03-01T02:32:42;-0.10;1.00
296;DHT22;132;48.770;9.200;2023-03-01T02:35:12;-0.10;1.00
296;DHT22;132;48.770;9.200;2023-03-01T02:37:40;0.00;1.00
296;DHT22;132;48.770;9.200;2023-03-01T02:40:11;0.00;1.00
296;DHT22;132;48.770;9.200;2023-03-01T02:42:50;0.10;1.00
296;DHT22;132;48.770;9.200;2023-03-01T02:45:17;0.10;1.00
296;DHT22;132;48.770;9.200;2023-03-01T02:47:43;0.10;1.00
296;DHT22;132;48.770;9.200;2023-03-01T02:53:02;0.20;1.00
296;DHT22;132;48.770;9.200;2023-03-01T02:55:31;0.20;1.00
296;DHT22;132;48.770;9.200;2023-03-01T02:57:57;0.20;1.00
296;DHT22;132;48.770;9.200;2023-03-01T03:00:39;0.20;1.00
296;DHT22;132;48.770;9.200;2023-03-01T03:03:12;0.20;1.00
296;DHT22;132;48.770;9.200;2023-03-01T03:05:40;0.20;1.00
296;DHT22;132;48.770;9.200;2023-03-01T03:08:06;0.20;1.00
296;DHT22;132;48.770;9.200;2023-03-01T03:10:39;0.20;1.00
296;DHT22;132;48.770;9.200;2023-03-01T03:13:08;0.30;1.00
296;DHT22;132;48.770;9.200;2023-03-01T03:15:35;0.20;1.00
296;DHT22;132;48.770;9.200;2023-03-01T03:18:04;0.30;1.00
296;DHT22;132;48.770;9.200;2023-03-01T03:20:31;0.30;1.00
296;DHT22;132;48.770;9.200;2023-03-01T03:22:59;0.30;1.00
296;DHT22;132;48.770;9.200;2023-03-01T03:25:27;0.30;1.00
296;DHT22;132;48.770;9.200;2023-03-01T03:27:54;0.30;1.00
296;DHT22;132;48.770;9.200;2023-03-01T03:30:25;0.30;1.00
296;DHT22;132;48.770;9.200;2023-03-01T03:32:52;0.20;1.00
296;DHT22;132;48.770;9.200;2023-03-01T03:35:28;0.30;1.00
296;DHT22;132;48.770;9.200;2023-03-01T03:38:00;0.40;1.00
296;DHT22;132;48.770;9.200;2023-03-01T03:43:01;0.30;1.00
296;DHT22;132;48.770;9.200;2023-03-01T03:45:28;0.40;1.00
296;DHT22;132;48.770;9.200;2023-03-01T03:47:54;0.40;1.00
296;DHT22;132;48.770;9.200;2023-03-01T03:50:20;0.50;1.00
296;DHT22;132;48.770;9.200;2023-03-01T03:52:47;0.40;1.00
296;DHT22;132;48.770;9.200;2023-03-01T03:55:13;0.30;1.00
296;DHT22;132;48.770;9.200;2023-03-01T03:57:40;0.40;1.00
296;DHT22;132;48.770;9.200;2023-03-01T04:00:10;0.50;1.00
296;DHT22;132;48.770;9.200;2023-03-01T04:02:41;0.60;1.00
296;DHT22;132;48.770;9.200;2023-03-01T04:05:09;0.50;1.00
296;DHT22;132;48.770;9.200;2023-03-01T04:07:36;0.60;1.00
296;DHT22;132;48.770;9.200;2023-03-01T04:10:04;0.60;1.00
296;DHT22;132;48.770;9.200;2023-03-01T04:12:30;0.60;1.00
296;DHT22;132;48.770;9.200;2023-03-01T04:14:57;1.60;1.00
296;DHT22;132;48.770;9.200;2023-03-01T04:17:24;0.60;1.00
296;DHT22;132;48.770;9.200;2023-03-01T04:19:50;0.50;1.00
296;DHT22;132;48.770;9.200;2023-03-01T04:22:16;0.60;1.00
296;DHT22;132;48.770;9.200;2023-03-01T04:24:44;1.00;1.00
296;DHT22;132;48.770;9.200;2023-03-01T04:27:11;0.50;1.00
296;DHT22;132;48.770;9.200;2023-03-01T04:29:38;0.60;1.00
296;DHT22;132;48.770;9.200;2023-03-01T04:32:04;0.70;1.00
296;DHT22;132;48.770;9.200;2023-03-01T04:34:31;0.70;1.00
296;DHT22;132;48.770;9.200;2023-03-01T04:36:57;0.60;1.00
296;DHT22;132;48.770;9.200;2023-03-01T04:39:24;0.70;1.00
296;DHT22;132;48.770;9.200;2023-03-01T04:41:50;0.70;1.00
296;DHT22;132;48.770;9.200;2023-03-01T04:44:16;0.70;1.00
296;DHT22;132;48.770;9.200;2023-03-01T04:46:43;0.70;1.00
296;DHT22;132;48.770;9.200;2023-03-01T04:49:09;0.70;1.00
296;DHT22;132;48.770;9.200;2023-03-01T04:51:35;0.80;1.00
296;DHT22;132;48.770;9.200;2023-03-01T04:54:02;0.80;1.00
296;DHT22;132;48.770;9.200;2023-03-01T04:56:29;0.80;1.00
296;DHT22;132;48.770;9.200;2023-03-01T04:58:55;0.80;1.00
296;DHT22;132;48.770;9.200;2023-03-01T05:01:22;1.90;1.00
296;DHT22;132;48.770;9.200;2023-03-01T05:03:50;0.80;1.00
296;DHT22;132;48.770;9.200;2023-03-01T05:06:18;0.70;1.00
296;DHT22;132;48.770;9.200;2023-03-01T05:08:45;1.60;1.00
296;DHT22;132;48.770;9.200;2023-03-01T05:11:12;0.80;1.00
296;DHT22;132;48.770;9.200;2023-03-01T05:13:39;0.80;1.00
296;DHT22;132;48.770;9.200;2023-03-01T05:16:06;0.70;1.00
296;DHT22;132;48.770;9.200;2023-03-01T05:18:37;0.80;1.00
296;DHT22;132;48.770;9.200;2023-03-01T05:21:06;0.80;1.00
296;DHT22;132;48.770;9.200;2023-03-01T05:23:33;0.80;1.00
296;DHT22;132;48.770;9.200;2023-03-01T05:26:01;0.80;1.00
296;DHT22;132;48.770;9.200;2023-03-01T05:28:28;0.90;1.00
296;DHT22;132;48.770;9.200;2023-03-01T05:30:56;0.90;1.00
296;DHT22;132;48.770;9.200;2023-03-01T05:33:23;0.90;1.00
296;DHT22;132;48.770;9.200;2023-03-01T05:35:51;0.90;1.00
296;DHT22;132;48.770;9.200;2023-03-01T05:38:21;0.90;1.00
296;DHT22;132;48.770;9.200;2023-03-01T05:40:49;1.10;1.00
296;DHT22;132;48.770;9.200;2023-03-01T05:43:16;0.70;1.00
296;DHT22;132;48.770;9.200;2023-03-01T05:45:43;0.70;1.00
296;DHT22;132;48.770;9.200;2023-03-01T05:48:10;0.90;1.00
296;DHT22;132;48.770;9.200;2023-03-01T05:50:42;0.90;1.00
296;DHT22;132;48.770;9.200;2023-03-01T05:53:14;0.80;1.00
296;DHT22;132;48.770;9.200;2023-03-01T05:55:41;0.90;1.00
296;DHT22;132;48.770;9.200;2023-03-01T05:58:14;0.90;1.00
296;DHT22;132;48.770;9.200;2023-03-01T06:00:41;0.90;1.00
296;DHT22;132;48.770;9.200;2023-03-01T06:03:10;0.80;1.00
296;DHT22;132;48.770;9.200;2023-03-01T06:05:37;0.80;1.00
296;DHT22;132;48.770;9.200;2023-03-01T06:08:05;0.80;1.00
296;DHT22;132;48.770;9.200;2023-03-01T06:10:31;0.80;1.00
296;DHT22;132;48.770;9.200;2023-03-01T06:12:58;0.90;1.00
296;DHT22;132;48.770;9.200;2023-03-01T06:15:25;0.80;1.00
296;DHT22;132;48.770;9.200;2023-03-01T06:17:53;0.90;1.00
296;DHT22;132;48.770;9.200;2023-03-01T06:20:23;0.90;1.00
296;DHT22;132;48.770;9.200;2023-03-01T06:22:50;0.80;1.00
296;DHT22;132;48.770;9.200;2023-03-01T06:25:19;0.90;1.00
296;DHT22;132;48.770;9.200;2023-03-01T06:27:46;0.90;1.00
296;DHT22;132;48.770;9.200;2023-03-01T06:30:15;0.90;1.00
296;DHT22;132;48.770;9.200;2023-03-01T06:32:42;1.00;1.00
296;DHT22;132;48.770;9.200;2023-03-01T06:35:13;1.00;1.00
296;DHT22;132;48.770;9.200;2023-03-01T06:37:40;1.00;1.00
296;DHT22;132;48.770;9.200;2023-03-01T06:40:08;1.00;1.00
296;DHT22;132;48.770;9.200;2023-03-01T06:42:39;1.60;1.00
296;DHT22;132;48.770;9.200;2023-03-01T06:45:06;1.00;1.00
296;DHT22;132;48.770;9.200;2023-03-01T06:47:33;1.00;1.00
296;DHT22;132;48.770;9.200;2023-03-01T06:50:00;0.90;1.00
296;DHT22;132;48.770;9.200;2023-03-01T06:52:27;0.90;1.00
296;DHT22;132;48.770;9.200;2023-03-01T06:54:53;0.90;1.00
296;DHT22;132;48.770;9.200;2023-03-01T06:57:20;0.90;1.00
296;DHT22;132;48.770;9.200;2023-03-01T06:59:47;0.80;1.00
296;DHT22;132;48.770;9.200;2023-03-01T07:02:14;0.80;1.00
296;DHT22;132;48.770;9.200;2023-03-01T07:04:42;0.80;1.00
296;DHT22;132;48.770;9.200;2023-03-01T07:07:09;0.70;1.00
296;DHT22;132;48.770;9.200;2023-03-01T07:09:35;0.70;1.00
296;DHT22;132;48.770;9.200;2023-03-01T07:12:02;0.60;1.00
296;DHT22;132;48.770;9.200;2023-03-01T07:14:28;0.60;1.00
296;DHT22;132;48.770;9.200;2023-03-01T07:16:55;0.50;1.00
296;DHT22;132;48.770;9.200;2023-03-01T07:19:22;0.30;1.00
296;DHT22;132;48.770;9.200;2023-03-01T07:21:48;0.50;1.00
296;DHT22;132;48.770;9.200;2023-03-01T07:24:15;0.50;1.00
296;DHT22;132;48.770;9.200;2023-03-01T07:26:41;0.40;1.00
296;DHT22;132;48.770;9.200;2023-03-01T07:29:10;0.40;1.00
296;DHT22;132;48.770;9.200;2023-03-01T07:31:36;0.50;1.00
296;DHT22;132;48.770;9.200;2023-03-01T07:34:03;0.40;1.00
296;DHT22;132;48.770;9.200;2023-03-01T07:36:30;0.40;1.00
296;DHT22;132;48.770;9.200;2023-03-01T07:38:56;0.40;1.00
296;DHT22;132;48.770;9.200;2023-03-01T07:41:24;0.50;1.00
296;DHT22;132;48.770;9.200;2023-03-01T07:43:50;0.50;1.00
296;DHT22;132;48.770;9.200;2023-03-01T07:46:16;0.50;1.00
296;DHT22;132;48.770;9.200;2023-03-01T07:48:45;0.50;1.00
296;DHT22;132;48.770;9.200;2023-03-01T07:51:11;1.00;1.00
296;DHT22;132;48.770;9.200;2023-03-01T07:53:38;0.50;1.00
296;DHT22;132;48.770;9.200;2023-03-01T07:56:09;0.30;1.00
296;DHT22;132;48.770;9.200;2023-03-01T07:58:37;0.80;1.00
296;DHT22;132;48.770;9.200;2023-03-01T08:01:05;0.70;1.00
296;DHT22;132;48.770;9.200;2023-03-01T08:03:33;0.70;1.00
296;DHT22;132;48.770;9.200;2023-03-01T08:06:00;0.70;1.00
296;DHT22;132;48.770;9.200;2023-03-01T08:08:27;0.80;1.00
296;DHT22;132;48.770;9.200;2023-03-01T08:10:56;0.90;1.00
296;DHT22;132;48.770;9.200;2023-03-01T08:13:23;0.80;1.00
296;DHT22;132;48.770;9.200;2023-03-01T08:15:49;0.90;1.00
296;DHT22;132;48.770;9.200;2023-03-01T08:18:17;0.80;1.00
296;DHT22;132;48.770;9.200;2023-03-01T08:20:44;0.90;1.00
296;DHT22;132;48.770;9.200;2023-03-01T08:23:10;1.00;1.00
296;DHT22;132;48.770;9.200;2023-03-01T08:25:38;2.00;1.00
296;DHT22;132;48.770;9.200;2023-03-01T08:28:05;1.10;1.00
296;DHT22;132;48.770;9.200;2023-03-01T08:30:32;1.40;1.00
296;DHT22;132;48.770;9.200;2023-03-01T08:32:59;1.10;1.00
296;DHT22;132;48.770;9.200;2023-03-01T08:35:25;1.20;1.00
296;DHT22;132;48.770;9.200;2023-03-01T08:37:52;1.30;1.00
296;DHT22;132;48.770;9.200;2023-03-01T08:40:18;1.30;1.00
296;DHT22;132;48.770;9.200;2023-03-01T08:42:44;1.40;1.00
296;DHT22;132;48.770;9.200;2023-03-01T08:45:12;1.40;1.00
296;DHT22;132;48.770;9.200;2023-03-01T08:47:40;1.40;1.00
296;DHT22;132;48.770;9.200;2023-03-01T08:50:06;1.40;1.00
296;DHT22;132;48.770;9.200;2023-03-01T08:52:33;1.50;1.00
296;DHT22;132;48.770;9.200;2023-03-01T08:55:00;1.50;1.00
296;DHT22;132;48.770;9.200;2023-03-01T08:57:27;1.60;1.00
296;DHT22;132;48.770;9.200;2023-03-01T08:59:54;1.60;1.00
296;DHT22;132;48.770;9.200;2023-03-01T09:02:22;1.70;1.00
296;DHT22;132;48.770;9.200;2023-03-01T09:04:48;1.80;1.00
296;DHT22;132;48.770;9.200;2023-03-01T09:07:15;1.80;1.00
296;DHT22;132;48.770;9.200;2023-03-01T09:09:41;1.80;1.00
296;DHT22;132;48.770;9.200;2023-03-01T09:12:07;1.90;1.00
296;DHT22;132;48.770;9.200;2023-03-01T09:14:34;1.90;1.00
296;DHT22;132;48.770;9.200;2023-03-01T09:17:00;2.00;1.00
296;DHT22;132;48.770;9.200;2023-03-01T09:19:29;2.00;1.00
296;DHT22;132;48.770;9.200;2023-03-01T09:21:55;1.90;1.00
296;DHT22;132;48.770;9.200;2023-03-01T09:24:23;2.00;1.00
296;DHT22;132;48.770;9.200;2023-03-01T09:26:53;2.10;1.00
296;DHT22;132;48.770;9.200;2023-03-01T09:29:20;2.10;1.00
296;DHT22;132;48.770;9.200;2023-03-01T09:31:46;2.60;1.00
296;DHT22;132;48.770;9.200;2023-03-01T09:34:13;2.10;1.00
296;DHT22;132;48.770;9.200;2023-03-01T09:36:42;2.20;1.00
296;DHT22;132;48.770;9.200;2023-03-01T09:39:08;2.20;1.00
296;DHT22;132;48.770;9.200;2023-03-01T09:46:43;2.60;1.00
296;DHT22;132;48.770;9.200;2023-03-01T09:49:21;2.70;1.00
296;DHT22;132;48.770;9.200;2023-03-01T09:52:03;2.80;1.00
296;DHT22;132;48.770;9.200;2023-03-01T09:54:33;2.90;1.00
296;DHT22;132;48.770;9.200;2023-03-01T09:57:21;3.00;1.00
296;DHT22;132;48.770;9.200;2023-03-01T10:02:57;3.10;1.00
296;DHT22;132;48.770;9.200;2023-03-01T10:10:36;3.20;1.00
296;DHT22;132;48.770;9.200;2023-03-01T10:13:13;3.40;1.00
296;DHT22;132;48.770;9.200;2023-03-01T10:15:49;3.20;1.00
296;DHT22;132;48.770;9.200;2023-03-01T10:18:19;3.50;1.00
296;DHT22;132;48.770;9.200;2023-03-01T10:20:57;3.50;1.00
296;DHT22;132;48.770;9.200;2023-03-01T10:23:25;3.70;1.00
296;DHT22;132;48.770;9.200;2023-03-01T10:29:09;3.70;1.00
296;DHT22;132;48.770;9.200;2023-03-01T10:31:47;3.80;1.00
296;DHT22;132;48.770;9.200;2023-03-01T10:34:21;3.70;1.00
296;DHT22;132;48.770;9.200;2023-03-01T10:36:51;3.90;1.00
296;DHT22;132;48.770;9.200;2023-03-01T10:39:23;4.00;1.00
296;DHT22;132;48.770;9.200;2023-03-01T10:42:19;4.00;1.00
296;DHT22;132;48.770;9.200;2023-03-01T10:44:49;5.10;1.00
296;DHT22;132;48.770;9.200;2023-03-01T10:47:23;4.10;1.00
296;DHT22;132;48.770;9.200;2023-03-01T10:50:02;4.10;1.00
296;DHT22;132;48.770;9.200;2023-03-01T10:52:40;4.10;1.00
296;DHT22;132;48.770;9.200;2023-03-01T10:57:42;4.40;1.00
296;DHT22;132;48.770;9.200;2023-03-01T11:00:21;4.50;1.00
296;DHT22;132;48.770;9.200;2023-03-01T11:03:02;4.50;1.00
296;DHT22;132;48.770;9.200;2023-03-01T11:05:30;4.50;1.00
296;DHT22;132;48.770;9.200;2023-03-01T11:08:01;4.60;1.00
296;DHT22;132;48.770;9.200;2023-03-01T11:10:34;4.70;1.00
296;DHT22;132;48.770;9.200;2023-03-01T11:13:18;5.60;1.00
296;DHT22;132;48.770;9.200;2023-03-01T11:16:07;4.70;1.00
296;DHT22;132;48.770;9.200;2023-03-01T11:18:36;4.90;1.00
296;DHT22;132;48.770;9.200;2023-03-01T11:21:03;4.90;1.00
296;DHT22;132;48.770;9.200;2023-03-01T11:23:30;5.10;1.00
296;DHT22;132;48.770;9.200;2023-03-01T11:26:05;5.10;1.00
296;DHT22;132;48.770;9.200;2023-03-01T11:28:35;5.10;1.00
296;DHT22;132;48.770;9.200;2023-03-01T11:31:06;5.50;1.00
296;DHT22;132;48.770;9.200;2023-03-01T11:33:54;5.00;1.00
296;DHT22;132;48.770;9.200;2023-03-01T11:41:52;5.10;1.00
296;DHT22;132;48.770;9.200;2023-03-01T11:44:24;5.80;1.00
296;DHT22;132;48.770;9.200;2023-03-01T11:52:35;5.50;1.00
296;DHT22;132;48.770;9.200;2023-03-01T12:19:54;6.00;1.00
296;DHT22;132;48.770;9.200;2023-03-01T12:22:51;5.90;1.00
296;DHT22;132;48.770;9.200;2023-03-01T12:25:45;6.00;1.00
296;DHT22;132;48.770;9.200;2023-03-01T12:28:41;6.20;1.00
296;DHT22;132;48.770;9.200;2023-03-01T12:34:24;6.20;1.00
296;DHT22;132;48.770;9.200;2023-03-01T12:48:01;6.50;1.00
296;DHT22;132;48.770;9.200;2023-03-01T12:50:52;6.70;1.00
296;DHT22;132;48.770;9.200;2023-03-01T12:53:51;6.80;1.00
296;DHT22;132;48.770;9.200;2023-03-01T12:56:24;6.80;1.00
296;DHT22;132;48.770;9.200;2023-03-01T13:02:14;7.00;1.00
296;DHT22;132;48.770;9.200;2023-03-01T13:10:15;7.20;1.00
296;DHT22;132;48.770;9.200;2023-03-01T13:12:50;7.20;1.00
296;DHT22;132;48.770;9.200;2023-03-01T13:17:54;6.60;1.00
296;DHT22;132;48.770;9.200;2023-03-01T13:20:45;7.30;1.00
296;DHT22;132;48.770;9.200;2023-03-01T13:26:14;7.40;1.00
296;DHT22;132;48.770;9.200;2023-03-01T13:33:58;7.50;1.00
296;DHT22;132;48.770;9.200;2023-03-01T13:44:47;7.60;1.00
296;DHT22;132;48.770;9.200;2023-03-01T13:49:52;7.60;1.00
296;DHT22;132;48.770;9.200;2023-03-01T13:52:39;7.60;1.00
296;DHT22;132;48.770;9.200;2023-03-01T13:55:41;7.60;1.00
296;DHT22;132;48.770;9.200;2023-03-01T13:58:29;7.60;1.00
296;DHT22;132;48.770;9.200;2023-03-01T14:01:02;7.60;1.00
296;DHT22;132;48.770;9.200;2023-03-01T14:03:30;7.40;1.00
296;DHT22;132;48.770;9.200;2023-03-01T14:05:59;7.60;1.00
296;DHT22;132;48.770;9.200;2023-03-01T14:08:28;7.60;1.00
296;DHT22;132;48.770;9.200;2023-03-01T14:11:06;7.60;1.00
296;DHT22;132;48.770;9.200;2023-03-01T14:19:26;7.70;1.00
296;DHT22;132;48.770;9.200;2023-03-01T14:24:57;7.60;1.00
296;DHT22;132;48.770;9.200;2023-03-01T14:27:38;7.60;1.00
296;DHT22;132;48.770;9.200;2023-03-01T14:30:26;7.70;1.00
296;DHT22;132;48.770;9.200;2023-03-01T14:32:56;7.80;1.00
296;DHT22;132;48.770;9.200;2023-03-01T14:35:29;8.00;1.00
296;DHT22;132;48.770;9.200;2023-03-01T14:37:55;7.70;1.00
296;DHT22;132;48.770;9.200;2023-03-01T14:42:53;7.70;1.00
296;DHT22;132;48.770;9.200;2023-03-01T14:45:21;7.90;1.00
296;DHT22;132;48.770;9.200;2023-03-01T14:47:49;7.70;1.00
296;DHT22;132;48.770;9.200;2023-03-01T14:50:23;7.50;1.00
296;DHT22;132;48.770;9.200;2023-03-01T14:52:54;7.80;1.00
296;DHT22;132;48.770;9.200;2023-03-01T14:55:38;7.80;1.00
296;DHT22;132;48.770;9.200;2023-03-01T14:58:09;7.90;1.00
296;DHT22;132;48.770;9.200;2023-03-01T15:00:38;7.90;1.00
296;DHT22;132;48.770;9.200;2023-03-01T15:03:13;7.90;1.00
296;DHT22;132;48.770;9.200;2023-03-01T15:05:42;8.10;1.00
296;DHT22;132;48.770;9.200;2023-03-01T15:08:20;8.00;1.00
296;DHT22;132;48.770;9.200;2023-03-01T15:11:05;7.80;1.00
296;DHT22;132;48.770;9.200;2023-03-01T15:13:35;7.80;1.00
296;DHT22;132;48.770;9.200;2023-03-01T15:16:14;7.80;1.00
296;DHT22;132;48.770;9.200;2023-03-01T15:18:47;8.10;1.00
296;DHT22;132;48.770;9.200;2023-03-01T15:21:20;7.60;1.00
296;DHT22;132;48.770;9.200;2023-03-01T15:26:39;7.60;1.00
296;DHT22;132;48.770;9.200;2023-03-01T15:29:18;7.50;1.00
296;DHT22;132;48.770;9.200;2023-03-01T15:32:00;7.50;1.00
296;DHT22;132;48.770;9.200;2023-03-01T15:37:00;7.30;1.00
296;DHT22;132;48.770;9.200;2023-03-01T15:39:35;7.40;1.00
296;DHT22;132;48.770;9.200;2023-03-01T15:42:53;7.40;1.00
296;DHT22;132;48.770;9.200;2023-03-01T15:47:54;7.30;1.00
296;DHT22;132;48.770;9.200;2023-03-01T15:50:29;7.30;1.00
296;DHT22;132;48.770;9.200;2023-03-01T15:52:56;7.20;1.00
296;DHT22;132;48.770;9.200;2023-03-01T15:55:29;7.30;1.00
296;DHT22;132;48.770;9.200;2023-03-01T15:58:18;7.30;1.00
296;DHT22;132;48.770;9.200;2023-03-01T16:00:46;7.20;1.00
296;DHT22;132;48.770;9.200;2023-03-01T16:03:15;7.10;1.00
296;DHT22;132;48.770;9.200;2023-03-01T16:05:48;6.90;1.00
296;DHT22;132;48.770;9.200;2023-03-01T16:08:17;6.90;1.00
296;DHT22;132;48.770;9.200;2023-03-01T16:10:43;6.90;1.00
296;DHT22;132;48.770;9.200;2023-03-01T16:13:11;6.70;1.00
296;DHT22;132;48.770;9.200;2023-03-01T16:15:38;6.70;1.00
296;DHT22;132;48.770;9.200;2023-03-01T16:18:06;6.70;1.00
296;DHT22;132;48.770;9.200;2023-03-01T16:20:34;6.60;1.00
296;DHT22;132;48.770;9.200;2023-03-01T16:23:03;6.60;1.00
296;DHT22;132;48.770;9.200;2023-03-01T16:25:30;7.10;1.00
296;DHT22;132;48.770;9.200;2023-03-01T16:27:58;6.50;1.00
296;DHT22;132;48.770;9.200;2023-03-01T16:30:27;6.50;1.00
296;DHT22;132;48.770;9.200;2023-03-01T16:32:53;6.40;1.00
296;DHT22;132;48.770;9.200;2023-03-01T16:35:21;6.50;1.00
296;DHT22;132;48.770;9.200;2023-03-01T16:37:48;6.40;1.00
296;DHT22;132;48.770;9.200;2023-03-01T16:40:20;6.50;1.00
296;DHT22;132;48.770;9.200;2023-03-01T16:42:48;6.40;1.00
296;DHT22;132;48.770;9.200;2023-03-01T16:45:14;6.40;1.00
296;DHT22;132;48.770;9.200;2023-03-01T16:47:40;6.30;1.00
296;DHT22;132;48.770;9.200;2023-03-01T16:50:07;6.20;1.00
296;DHT22;132;48.770;9.200;2023-03-01T16:52:34;6.20;1.00
296;DHT22;132;48.770;9.200;2023-03-01T16:55:02;6.10;1.00
296;DHT22;132;48.770;9.200;2023-03-01T16:57:30;6.60;1.00
296;DHT22;132;48.770;9.200;2023-03-01T16:59:56;6.10;1.00
296;DHT22;132;48.770;9.200;2023-03-01T17:02:23;5.90;1.00
296;DHT22;132;48.770;9.200;2023-03-01T17:04:54;6.60;1.00
296;DHT22;132;48.770;9.200;2023-03-01T17:07:21;7.20;1.00
296;DHT22;132;48.770;9.200;2023-03-01T17:09:48;5.80;1.00
296;DHT22;132;48.770;9.200;2023-03-01T17:12:15;5.70;1.00
296;DHT22;132;48.770;9.200;2023-03-01T17:14:42;5.60;1.00
296;DHT22;132;48.770;9.200;2023-03-01T17:17:09;6.00;1.00
296;DHT22;132;48.770;9.200;2023-03-01T17:19:36;5.60;1.00
296;DHT22;132;48.770;9.200;2023-03-01T17:22:07;5.60;1.00
296;DHT22;132;48.770;9.200;2023-03-01T17:24:35;5.30;1.00
296;DHT22;132;48.770;9.200;2023-03-01T17:27:03;5.40;1.00
296;DHT22;132;48.770;9.200;2023-03-01T17:29:29;5.30;1.00
296;DHT22;132;48.770;9.200;2023-03-01T17:31:55;5.20;1.00
296;DHT22;132;48.770;9.200;2023-03-01T17:34:22;5.20;1.00
296;DHT22;132;48.770;9.200;2023-03-01T17:36:49;5.00;1.00
296;DHT22;132;48.770;9.200;2023-03-01T17:39:20;5.00;1.00
296;DHT22;132;48.770;9.200;2023-03-01T17:41:51;4.90;1.00
296;DHT22;132;48.770;9.200;2023-03-01T17:44:18;5.00;1.00
296;DHT22;132;48.770;9.200;2023-03-01T17:46:44;4.60;1.00
296;DHT22;132;48.770;9.200;2023-03-01T17:49:11;4.70;1.00
296;DHT22;132;48.770;9.200;2023-03-01T17:51:38;4.80;1.00
296;DHT22;132;48.770;9.200;2023-03-01T17:54:04;4.70;1.00
296;DHT22;132;48.770;9.200;2023-03-01T17:56:31;4.70;1.00
296;DHT22;132;48.770;9.200;2023-03-01T17:58:59;4.40;1.00
296;DHT22;132;48.770;9.200;2023-03-01T18:01:25;4.50;1.00
296;DHT22;132;48.770;9.200;2023-03-01T18:03:52;4.50;1.00
296;DHT22;132;48.770;9.200;2023-03-01T18:06:24;4.50;1.00
296;DHT22;132;48.770;9.200;2023-03-01T18:08:51;4.40;1.00
296;DHT22;132;48.770;9.200;2023-03-01T18:11:23;4.50;1.00
296;DHT22;132;48.770;9.200;2023-03-01T18:13:50;4.30;1.00
296;DHT22;132;48.770;9.200;2023-03-01T18:16:18;4.30;1.00
296;DHT22;132;48.770;9.200;2023-03-01T18:18:44;4.30;1.00
296;DHT22;132;48.770;9.200;2023-03-01T18:21:11;4.30;1.00
296;DHT22;132;48.770;9.200;2023-03-01T18:23:39;4.10;1.00
296;DHT22;132;48.770;9.200;2023-03-01T18:26:12;4.20;1.00
296;DHT22;132;48.770;9.200;2023-03-01T18:28:40;4.00;1.00
296;DHT22;132;48.770;9.200;2023-03-01T18:31:09;4.00;1.00
296;DHT22;132;48.770;9.200;2023-03-01T18:33:38;4.00;1.00
296;DHT22;132;48.770;9.200;2023-03-01T18:36:12;3.90;1.00
296;DHT22;132;48.770;9.200;2023-03-01T18:38:41;4.00;1.00
296;DHT22;132;48.770;9.200;2023-03-01T18:41:07;3.90;1.00
296;DHT22;132;48.770;9.200;2023-03-01T18:43:33;3.80;1.00
296;DHT22;132;48.770;9.200;2023-03-01T18:46:00;3.80;1.00
296;DHT22;132;48.770;9.200;2023-03-01T18:48:26;3.90;1.00
296;DHT22;132;48.770;9.200;2023-03-01T18:50:52;3.80;1.00
296;DHT22;132;48.770;9.200;2023-03-01T18:53:19;3.90;1.00
296;DHT22;132;48.770;9.200;2023-03-01T18:55:45;3.70;1.00
296;DHT22;132;48.770;9.200;2023-03-01T18:58:11;3.60;1.00
296;DHT22;132;48.770;9.200;2023-03-01T19:00:38;3.70;1.00
296;DHT22;132;48.770;9.200;2023-03-01T19:03:04;3.60;1.00
296;DHT22;132;48.770;9.200;2023-03-01T19:05:31;3.70;1.00
296;DHT22;132;48.770;9.200;2023-03-01T19:07:57;3.70;1.00
296;DHT22;132;48.770;9.200;2023-03-01T19:10:24;3.90;1.00
296;DHT22;132;48.770;9.200;2023-03-01T19:12:50;3.70;1.00
296;DHT22;132;48.770;9.200;2023-03-01T19:15:16;3.60;1.00
296;DHT22;132;48.770;9.200;2023-03-01T19:17:43;3.80;1.00
296;DHT22;132;48.770;9.200;2023-03-01T19:20:10;3.50;1.00
296;DHT22;132;48.770;9.200;2023-03-01T19:22:37;3.60;1.00
296;DHT22;132;48.770;9.200;2023-03-01T19:25:03;3.60;1.00
296;DHT22;132;48.770;9.200;2023-03-01T19:27:30;3.60;1.00
296;DHT22;132;48.770;9.200;2023-03-01T19:29:56;3.40;1.00
296;DHT22;132;48.770;9.200;2023-03-01T19:32:23;3.90;1.00
296;DHT22;132;48.770;9.200;2023-03-01T19:34:49;3.40;1.00